createdAt,value
2018-11-04T00:00:25.955Z,0.00
2018-11-04T00:01:26.321Z,0.00
2018-11-04T00:02:25.899Z,0.00
2018-11-04T00:03:25.877Z,0.00
2018-11-04T00:04:25.867Z,0.00
2018-11-04T00:05:26.153Z,0.00
2018-11-04T00:06:26.290Z,0.00
2018-11-04T00:07:25.901Z,0.00
2018-11-04T00:08:25.761Z,0.00
2018-11-04T00:09:26.039Z,0.00
2018-11-04T00:10:25.709Z,0.00
2018-11-04T00:11:25.771Z,0.00
2018-11-04T00:12:25.693Z,0.00
2018-11-04T00:13:26.176Z,0.00
2018-11-04T00:14:25.610Z,0.00
2018-11-04T00:16:25.558Z,0.00
2018-11-04T00:17:25.533Z,0.00
2018-11-04T00:18:25.587Z,0.00
2018-11-04T00:19:25.928Z,0.00
2018-11-04T00:20:25.525Z,0.00
2018-11-04T00:21:25.441Z,0.00
2018-11-04T00:22:25.506Z,0.00
2018-11-04T00:23:25.388Z,0.00
2018-11-04T00:24:25.582Z,0.00
2018-11-04T00:27:25.398Z,0.00
2018-11-04T00:28:25.257Z,0.00
2018-11-04T00:29:25.247Z,0.00
2018-11-04T00:30:25.210Z,0.00
2018-11-04T00:31:25.486Z,0.00
2018-11-04T00:32:25.166Z,0.00
2018-11-04T00:33:25.137Z,0.00
2018-11-04T00:34:25.158Z,0.00
2018-11-04T00:35:25.405Z,0.00
2018-11-04T00:36:25.158Z,0.00
2018-11-04T00:37:25.550Z,0.00
2018-11-04T00:39:24.980Z,0.00
2018-11-04T00:40:24.958Z,0.00
2018-11-04T00:42:25.079Z,0.00
2018-11-04T00:43:24.885Z,0.00
2018-11-04T00:44:25.164Z,0.00
2018-11-04T00:46:24.998Z,0.00
2018-11-04T00:47:24.789Z,0.00
2018-11-04T00:48:24.793Z,0.00
2018-11-04T00:49:24.745Z,0.00
2018-11-04T00:50:25.019Z,0.00
2018-11-04T00:51:24.790Z,0.00
2018-11-04T00:52:24.806Z,0.00
2018-11-04T00:53:24.644Z,0.00
2018-11-04T00:54:24.989Z,0.00
2018-11-04T00:55:24.596Z,0.00
2018-11-04T00:56:24.612Z,0.00
2018-11-04T00:57:24.843Z,0.00
2018-11-04T00:58:24.619Z,0.00
2018-11-04T00:59:24.487Z,0.00
2018-11-04T01:00:24.504Z,0.00
2018-11-04T01:02:24.512Z,0.00
2018-11-04T01:03:24.395Z,0.00
2018-11-04T01:04:24.694Z,0.00
2018-11-04T01:05:24.345Z,0.00
2018-11-04T01:06:24.403Z,0.00
2018-11-04T01:07:24.542Z,0.00
2018-11-04T01:08:24.246Z,0.00
2018-11-04T01:09:24.224Z,0.00
2018-11-04T01:11:24.423Z,0.00
2018-11-04T01:12:24.159Z,0.00
2018-11-04T01:13:24.439Z,0.00
2018-11-04T01:14:24.093Z,0.00
2018-11-04T01:15:24.068Z,0.00
2018-11-04T01:17:24.049Z,0.00
2018-11-04T01:18:24.322Z,0.00
2018-11-04T01:19:24.050Z,0.00
2018-11-04T01:20:23.987Z,0.00
2018-11-04T01:21:24.052Z,0.00
2018-11-04T01:22:23.905Z,0.00
2018-11-04T01:23:23.952Z,0.00
2018-11-04T01:26:24.123Z,0.00
2018-11-04T01:27:23.796Z,0.00
2018-11-04T01:28:23.766Z,0.00
2018-11-04T01:29:23.738Z,0.00
2018-11-04T01:30:23.794Z,0.00
2018-11-04T01:31:23.705Z,0.00
2018-11-04T01:32:23.674Z,0.00
2018-11-04T01:33:23.951Z,0.00
2018-11-04T01:34:23.647Z,0.00
2018-11-04T01:35:23.634Z,0.00
2018-11-04T01:36:23.580Z,0.00
2018-11-04T01:37:23.553Z,0.00
2018-11-04T01:38:23.525Z,0.00
2018-11-04T01:39:23.800Z,0.00
2018-11-04T01:40:23.479Z,0.00
2018-11-04T01:41:23.534Z,0.00
2018-11-04T01:42:23.409Z,0.00
2018-11-04T01:43:23.388Z,0.00
2018-11-04T01:44:23.457Z,0.00
2018-11-04T01:45:23.923Z,0.00
2018-11-04T01:47:23.811Z,0.00
2018-11-04T01:48:23.410Z,0.00
2018-11-04T01:49:23.332Z,0.00
2018-11-04T01:53:23.173Z,0.00
2018-11-04T01:57:23.359Z,0.00
2018-11-04T01:58:23.066Z,0.00
2018-11-04T01:59:22.993Z,0.00
2018-11-04T02:00:22.970Z,0.00
2018-11-04T02:01:22.963Z,0.00
2018-11-04T02:02:22.945Z,0.00
2018-11-04T02:03:23.267Z,0.00
2018-11-04T02:04:22.916Z,0.00
2018-11-04T02:05:22.869Z,0.00
2018-11-04T02:06:22.851Z,0.00
2018-11-04T02:07:22.864Z,0.00
2018-11-04T02:08:22.771Z,0.00
2018-11-04T02:09:23.000Z,0.00
2018-11-04T02:12:22.751Z,0.00
2018-11-04T02:13:22.799Z,0.00
2018-11-04T02:15:22.924Z,0.00
2018-11-04T02:16:22.607Z,0.00
2018-11-04T02:23:22.435Z,0.00
2018-11-04T02:26:22.343Z,0.00
2018-11-04T02:27:22.316Z,0.00
2018-11-04T02:28:22.294Z,0.00
2018-11-04T02:29:22.585Z,0.00
2018-11-04T02:30:22.253Z,0.00
2018-11-04T02:34:22.212Z,0.00
2018-11-04T02:35:22.140Z,0.00
2018-11-04T02:36:22.512Z,0.00
2018-11-04T02:37:22.129Z,0.00
2018-11-04T02:38:22.180Z,0.00
2018-11-04T02:39:22.061Z,0.00
2018-11-04T02:42:21.996Z,0.00
2018-11-04T02:45:21.899Z,0.00
2018-11-04T02:46:21.874Z,0.00
2018-11-04T02:47:21.852Z,0.00
2018-11-04T02:48:21.830Z,0.00
2018-11-04T02:49:21.804Z,0.00
2018-11-04T02:50:22.143Z,0.00
2018-11-04T02:51:21.777Z,0.00
2018-11-04T02:52:21.753Z,0.00
2018-11-04T02:53:21.723Z,0.00
2018-11-04T02:54:21.702Z,0.00
2018-11-04T02:55:21.917Z,0.00
2018-11-04T02:56:21.636Z,0.00
2018-11-04T02:57:22.018Z,0.00
2018-11-04T02:58:21.612Z,0.00
2018-11-04T02:59:21.638Z,0.00
2018-11-04T03:00:21.561Z,0.00
2018-11-04T03:01:21.538Z,0.00
2018-11-04T03:02:21.512Z,0.00
2018-11-04T03:05:21.441Z,0.00
2018-11-04T03:06:21.396Z,0.00
2018-11-04T03:07:21.379Z,0.00
2018-11-04T03:08:21.350Z,0.00
2018-11-04T03:09:21.722Z,0.00
2018-11-04T03:10:21.348Z,0.00
2018-11-04T03:11:21.276Z,0.00
2018-11-04T03:12:21.247Z,0.00
2018-11-04T03:13:21.240Z,0.00
2018-11-04T03:14:21.209Z,0.00
2018-11-04T03:15:21.491Z,0.00
2018-11-04T03:16:21.176Z,0.00
2018-11-04T03:17:21.259Z,0.00
2018-11-04T03:21:21.357Z,0.00
2018-11-04T03:22:21.041Z,0.00
2018-11-04T03:23:21.018Z,0.00
2018-11-04T03:24:21.022Z,0.00
2018-11-04T03:25:20.969Z,0.00
2018-11-04T03:26:20.995Z,0.00
2018-11-04T03:27:21.219Z,0.00
2018-11-04T03:28:20.902Z,0.00
2018-11-04T03:29:20.875Z,0.00
2018-11-04T03:30:20.831Z,0.00
2018-11-04T03:31:21.127Z,0.00
2018-11-04T03:32:20.793Z,0.00
2018-11-04T03:33:21.059Z,0.00
2018-11-04T03:34:20.753Z,0.00
2018-11-04T03:35:20.739Z,0.00
2018-11-04T03:39:20.856Z,0.00
2018-11-04T03:40:20.584Z,0.00
2018-11-04T03:41:20.565Z,0.00
2018-11-04T03:42:20.536Z,0.00
2018-11-04T03:43:20.517Z,0.00
2018-11-04T03:44:20.488Z,0.00
2018-11-04T03:47:20.416Z,0.00
2018-11-04T03:48:20.395Z,0.00
2018-11-04T03:49:20.367Z,0.00
2018-11-04T03:50:20.345Z,0.00
2018-11-04T03:51:20.324Z,0.00
2018-11-04T03:52:20.302Z,0.00
2018-11-04T03:53:20.578Z,0.00
2018-11-04T03:54:20.354Z,0.00
2018-11-04T03:55:20.239Z,0.00
2018-11-04T03:56:20.210Z,0.00
2018-11-04T03:57:21.050Z,0.00
2018-11-04T03:58:20.249Z,0.00
2018-11-04T03:59:20.152Z,0.00
2018-11-04T04:00:20.443Z,0.00
2018-11-04T04:01:20.102Z,0.00
2018-11-04T04:02:20.068Z,0.00
2018-11-04T04:03:20.064Z,0.00
2018-11-04T04:04:20.029Z,0.00
2018-11-04T04:05:20.017Z,0.00
2018-11-04T04:09:19.908Z,0.00
2018-11-04T04:12:19.849Z,0.00
2018-11-04T04:18:19.687Z,0.00
2018-11-04T04:20:19.642Z,0.00
2018-11-04T04:21:19.916Z,0.00
2018-11-04T04:24:19.596Z,0.00
2018-11-04T04:25:19.505Z,0.00
2018-11-04T04:26:19.477Z,0.00
2018-11-04T04:27:19.710Z,0.00
2018-11-04T04:28:19.430Z,0.00
2018-11-04T04:35:19.286Z,0.00
2018-11-04T04:37:19.293Z,0.00
2018-11-04T04:38:19.219Z,0.00
2018-11-04T04:39:19.491Z,0.00
2018-11-04T04:40:19.467Z,0.00
2018-11-04T04:41:19.171Z,0.00
2018-11-04T04:42:19.221Z,0.00
2018-11-04T04:43:19.078Z,0.00
2018-11-04T04:44:19.327Z,0.00
2018-11-04T04:45:19.353Z,0.00
2018-11-04T04:46:19.020Z,0.00
2018-11-04T04:47:18.999Z,0.00
2018-11-04T04:49:19.053Z,0.00
2018-11-04T04:50:18.932Z,0.00
2018-11-04T04:51:19.205Z,0.00
2018-11-04T04:52:18.881Z,0.00
2018-11-04T04:53:18.888Z,0.00
2018-11-04T04:54:18.833Z,0.00
2018-11-04T04:55:18.820Z,0.00
2018-11-04T04:56:18.837Z,0.00
2018-11-04T04:57:19.072Z,0.00
2018-11-04T04:58:18.759Z,0.00
2018-11-04T05:02:18.644Z,0.00
2018-11-04T05:03:18.922Z,0.00
2018-11-04T05:04:18.597Z,0.00
2018-11-04T05:05:18.601Z,0.00
2018-11-04T05:06:18.534Z,0.00
2018-11-04T05:07:18.509Z,0.00
2018-11-04T05:08:18.608Z,0.00
2018-11-04T05:11:18.514Z,0.00
2018-11-04T05:12:18.496Z,0.00
2018-11-04T05:13:18.369Z,0.00
2018-11-04T05:14:18.346Z,0.00
2018-11-04T05:15:18.328Z,0.00
2018-11-04T05:16:18.307Z,0.00
2018-11-04T05:17:18.581Z,0.00
2018-11-04T05:18:18.278Z,0.00
2018-11-04T05:19:18.233Z,0.00
2018-11-04T05:20:18.499Z,0.00
2018-11-04T05:21:18.175Z,0.00
2018-11-04T05:22:18.220Z,0.00
2018-11-04T05:23:18.145Z,0.00
2018-11-04T05:24:18.420Z,0.00
2018-11-04T05:25:18.101Z,0.00
2018-11-04T05:26:18.125Z,0.00
2018-11-04T05:31:17.971Z,0.00
2018-11-04T05:32:17.946Z,0.00
2018-11-04T05:33:17.920Z,0.00
2018-11-04T05:34:17.910Z,0.00
2018-11-04T05:35:17.885Z,0.00
2018-11-04T05:39:17.782Z,0.00
2018-11-04T05:41:17.756Z,0.00
2018-11-04T05:42:17.713Z,0.00
2018-11-04T05:46:17.627Z,0.00
2018-11-04T05:48:17.582Z,0.00
2018-11-04T05:49:17.535Z,0.00
2018-11-04T05:51:17.505Z,0.00
2018-11-04T05:52:17.475Z,4.00
2018-11-04T05:53:17.456Z,4.00
2018-11-04T05:54:17.430Z,0.00
2018-11-04T06:00:17.329Z,8.00
2018-11-04T06:01:17.274Z,4.00
2018-11-04T06:02:17.547Z,8.00
2018-11-04T06:03:17.261Z,8.00
2018-11-04T06:04:17.204Z,8.00
2018-11-04T06:06:17.159Z,12.00
2018-11-04T06:07:17.146Z,12.00
2018-11-04T06:08:17.437Z,16.00
2018-11-04T06:09:17.123Z,20.00
2018-11-04T06:10:17.080Z,20.00
2018-11-04T06:11:17.059Z,24.00
2018-11-04T06:12:17.028Z,28.00
2018-11-04T06:13:17.009Z,28.00
2018-11-04T06:14:17.286Z,32.00
2018-11-04T06:15:16.960Z,36.00
2018-11-04T06:16:16.959Z,40.00
2018-11-04T06:17:16.921Z,48.00
2018-11-04T06:18:16.898Z,52.00
2018-11-04T06:19:16.893Z,56.00
2018-11-04T06:20:17.156Z,64.00
2018-11-04T06:23:17.013Z,76.00
2018-11-04T06:24:16.787Z,84.00
2018-11-04T06:25:16.753Z,84.00
2018-11-04T06:29:16.676Z,104.00
2018-11-04T06:30:16.626Z,108.00
2018-11-04T06:31:16.631Z,112.00
2018-11-04T06:32:16.602Z,120.00
2018-11-04T06:33:16.908Z,124.00
2018-11-04T06:34:16.583Z,128.00
2018-11-04T06:35:16.517Z,136.00
2018-11-04T06:37:16.507Z,136.00
2018-11-04T06:38:16.580Z,148.00
2018-11-04T06:39:16.443Z,160.00
2018-11-04T06:41:16.442Z,168.00
2018-11-04T06:42:16.367Z,176.00
2018-11-04T06:43:16.437Z,184.00
2018-11-04T06:44:16.365Z,200.00
2018-11-04T06:45:16.357Z,208.00
2018-11-04T06:46:16.326Z,224.00
2018-11-04T06:47:16.720Z,236.00
2018-11-04T06:49:16.207Z,224.00
2018-11-04T06:50:16.240Z,240.00
2018-11-04T06:51:16.161Z,284.00
2018-11-04T06:56:16.083Z,344.00
2018-11-04T06:57:16.065Z,348.00
2018-11-04T06:59:16.039Z,360.00
2018-11-04T07:00:16.101Z,404.00
2018-11-04T07:01:16.261Z,392.00
2018-11-04T07:03:16.169Z,396.00
2018-11-04T07:05:15.906Z,412.00
2018-11-04T07:06:15.867Z,444.00
2018-11-04T07:07:15.843Z,488.00
2018-11-04T07:08:16.178Z,492.00
2018-11-04T07:09:16.104Z,504.00
2018-11-04T07:10:15.774Z,552.00
2018-11-04T07:11:15.764Z,488.00
2018-11-04T07:12:15.739Z,548.00
2018-11-04T07:18:15.702Z,656.00
2018-11-04T07:19:15.561Z,640.00
2018-11-04T07:21:15.565Z,668.00
2018-11-04T07:22:15.521Z,672.00
2018-11-04T07:23:15.576Z,612.00
2018-11-04T07:24:15.472Z,624.00
2018-11-04T07:27:15.418Z,732.00
2018-11-04T07:28:15.405Z,724.00
2018-11-04T07:29:15.367Z,760.00
2018-11-04T07:30:15.454Z,812.00
2018-11-04T07:31:15.309Z,804.00
2018-11-04T07:33:15.279Z,852.00
2018-11-04T07:34:15.273Z,820.00
2018-11-04T07:36:15.205Z,840.00
2018-11-04T07:37:15.202Z,816.00
2018-11-04T07:38:15.408Z,912.00
2018-11-04T07:39:15.155Z,820.00
2018-11-04T07:40:15.233Z,908.00
2018-11-04T07:41:15.118Z,928.00
2018-11-04T07:42:15.082Z,968.00
2018-11-04T07:43:15.236Z,1036.00
2018-11-04T07:45:15.024Z,1132.00
2018-11-04T07:46:15.169Z,988.00
2018-11-04T07:47:14.974Z,1100.00
2018-11-04T07:48:14.948Z,1104.00
2018-11-04T07:49:14.960Z,1148.00
2018-11-04T07:50:15.216Z,1140.00
2018-11-04T07:52:14.978Z,1160.00
2018-11-04T07:55:14.925Z,1188.00
2018-11-04T07:56:14.800Z,1268.00
2018-11-04T07:57:15.476Z,1300.00
2018-11-04T07:58:14.747Z,1348.00
2018-11-04T07:59:14.837Z,1316.00
2018-11-04T08:00:14.701Z,1340.00
2018-11-04T08:01:14.686Z,1260.00
2018-11-04T08:02:14.669Z,1348.00
2018-11-04T08:04:14.963Z,1376.00
2018-11-04T08:05:14.602Z,1396.00
2018-11-04T08:06:14.576Z,1520.00
2018-11-04T08:07:14.562Z,1560.00
2018-11-04T08:08:14.557Z,1532.00
2018-11-04T08:09:14.537Z,1428.00
2018-11-04T08:10:14.514Z,1580.00
2018-11-04T08:11:14.812Z,1464.00
2018-11-04T08:12:14.469Z,1592.00
2018-11-04T08:13:14.434Z,1572.00
2018-11-04T08:14:14.426Z,1620.00
2018-11-04T08:15:14.410Z,1676.00
2018-11-04T08:16:14.408Z,1892.00
2018-11-04T08:17:14.668Z,1804.00
2018-11-04T08:18:14.335Z,1764.00
2018-11-04T08:19:14.322Z,1812.00
2018-11-04T08:20:14.307Z,1756.00
2018-11-04T08:21:14.431Z,1788.00
2018-11-04T08:22:14.248Z,1708.00
2018-11-04T08:23:14.523Z,1508.00
2018-11-04T08:24:14.222Z,1572.00
2018-11-04T08:25:14.198Z,1772.00
2018-11-04T08:26:14.191Z,1796.00
2018-11-04T08:27:14.165Z,1608.00
2018-11-04T08:28:14.152Z,1704.00
2018-11-04T08:29:14.177Z,1892.00
2018-11-04T08:30:14.401Z,1848.00
2018-11-04T08:31:14.212Z,2036.00
2018-11-04T08:32:14.069Z,2124.00
2018-11-04T08:33:14.338Z,2024.00
2018-11-04T08:34:14.023Z,2076.00
2018-11-04T08:35:13.997Z,2168.00
2018-11-04T08:36:13.980Z,2424.00
2018-11-04T08:37:14.251Z,2616.00
2018-11-04T08:38:13.930Z,2992.00
2018-11-04T08:39:13.912Z,2924.00
2018-11-04T08:43:14.228Z,3708.00
2018-11-04T08:45:13.887Z,4072.00
2018-11-04T08:46:13.772Z,3092.00
2018-11-04T08:47:13.761Z,2648.00
2018-11-04T08:48:13.740Z,2736.00
2018-11-04T08:49:14.025Z,2988.00
2018-11-04T08:50:13.982Z,3188.00
2018-11-04T08:51:13.676Z,3044.00
2018-11-04T08:52:13.645Z,2916.00
2018-11-04T08:53:13.639Z,3116.00
2018-11-04T08:54:13.613Z,2816.00
2018-11-04T08:57:13.553Z,2764.00
2018-11-04T08:58:13.825Z,2256.00
2018-11-04T08:59:13.504Z,2388.00
2018-11-04T09:00:13.545Z,2460.00
2018-11-04T09:01:13.761Z,2612.00
2018-11-04T09:03:13.417Z,2620.00
2018-11-04T09:05:13.380Z,2692.00
2018-11-04T09:06:13.377Z,2672.00
2018-11-04T09:07:13.659Z,2776.00
2018-11-04T09:08:13.336Z,2604.00
2018-11-04T09:09:13.322Z,2704.00
2018-11-04T09:12:13.250Z,2580.00
2018-11-04T09:13:13.874Z,2748.00
2018-11-04T09:14:13.286Z,2744.00
2018-11-04T09:15:13.424Z,2784.00
2018-11-04T09:16:13.196Z,2844.00
2018-11-04T09:18:13.126Z,3084.00
2018-11-04T09:19:13.162Z,3092.00
2018-11-04T09:20:13.347Z,2988.00
2018-11-04T09:21:13.182Z,2940.00
2018-11-04T09:22:13.188Z,2928.00
2018-11-04T09:23:13.046Z,2772.00
2018-11-04T09:24:13.027Z,3048.00
2018-11-04T09:26:12.998Z,2960.00
2018-11-04T09:28:13.263Z,3092.00
2018-11-04T09:29:13.033Z,3020.00
2018-11-04T09:30:13.120Z,3588.00
2018-11-04T09:31:12.902Z,3348.00
2018-11-04T09:32:12.860Z,3644.00
2018-11-04T09:33:12.939Z,3628.00
2018-11-04T09:34:12.825Z,3048.00
2018-11-04T09:35:13.173Z,2888.00
2018-11-04T09:36:12.940Z,2856.00
2018-11-04T09:37:12.789Z,3116.00
2018-11-04T09:38:12.755Z,2948.00
2018-11-04T09:39:12.743Z,3480.00
2018-11-04T09:40:12.724Z,3268.00
2018-11-04T09:41:12.998Z,3584.00
2018-11-04T09:43:12.653Z,3176.00
2018-11-04T09:44:12.948Z,3264.00
2018-11-04T09:45:12.627Z,3484.00
2018-11-04T09:46:12.597Z,3524.00
2018-11-04T09:47:12.630Z,3580.00
2018-11-04T09:48:12.863Z,3284.00
2018-11-04T09:49:12.579Z,3360.00
2018-11-04T09:50:12.520Z,3796.00
2018-11-04T09:51:12.507Z,3796.00
2018-11-04T09:52:12.487Z,3096.00
2018-11-04T09:53:12.573Z,3052.00
2018-11-04T09:54:12.501Z,3232.00
2018-11-04T09:55:12.824Z,3040.00
2018-11-04T09:56:12.406Z,3228.00
2018-11-04T10:04:12.285Z,3356.00
2018-11-04T10:10:12.167Z,3868.00
2018-11-04T10:11:12.145Z,3024.00
2018-11-04T10:12:12.177Z,3492.00
2018-11-04T10:13:12.173Z,3656.00
2018-11-04T10:14:12.439Z,3308.00
2018-11-04T10:15:12.110Z,2704.00
2018-11-04T10:16:12.097Z,2704.00
2018-11-04T10:18:12.296Z,3148.00
2018-11-04T10:19:12.351Z,2608.00
2018-11-04T10:20:12.638Z,2744.00
2018-11-04T10:21:12.520Z,3700.00
2018-11-04T10:23:11.921Z,3960.00
2018-11-04T10:24:11.924Z,3700.00
2018-11-04T10:26:12.184Z,3304.00
2018-11-04T10:27:11.897Z,2912.00
2018-11-04T10:28:11.830Z,3008.00
2018-11-04T10:29:11.959Z,3064.00
2018-11-04T10:30:11.872Z,3068.00
2018-11-04T10:31:11.838Z,3216.00
2018-11-04T10:32:11.837Z,3416.00
2018-11-04T10:36:11.825Z,3324.00
2018-11-04T10:37:11.739Z,3440.00
2018-11-04T10:38:11.666Z,2740.00
2018-11-04T10:39:12.032Z,3268.00
2018-11-04T10:40:11.684Z,3164.00
2018-11-04T10:41:18.021Z,3452.00
2018-11-04T10:42:14.320Z,3972.00
2018-11-04T10:43:11.722Z,4072.00
2018-11-04T10:44:11.549Z,3616.00
2018-11-04T10:45:11.531Z,3540.00
2018-11-04T10:48:14.527Z,3236.00
2018-11-04T10:53:11.401Z,4056.00
2018-11-04T10:55:11.355Z,4380.00
2018-11-04T10:56:11.440Z,3324.00
2018-11-04T10:58:11.310Z,3592.00
2018-11-04T11:08:11.117Z,4284.00
2018-11-04T11:09:11.122Z,4612.00
2018-11-04T11:12:11.267Z,4992.00
2018-11-04T11:13:12.511Z,4632.00
2018-11-04T11:14:11.035Z,4440.00
2018-11-04T11:15:11.119Z,3968.00
2018-11-04T11:16:12.416Z,4376.00
2018-11-04T11:17:11.742Z,3964.00
2018-11-04T11:18:11.147Z,4208.00
2018-11-04T11:19:10.941Z,3984.00
2018-11-04T11:20:10.923Z,4084.00
2018-11-04T11:21:10.916Z,4312.00
2018-11-04T11:22:10.884Z,3984.00
2018-11-04T11:23:11.173Z,3976.00
2018-11-04T11:24:10.863Z,4396.00
2018-11-04T11:25:10.856Z,4508.00
2018-11-04T11:26:10.828Z,4668.00
2018-11-04T11:36:10.729Z,4772.00
2018-11-04T11:37:10.655Z,4848.00
2018-11-04T11:38:11.221Z,4660.00
2018-11-04T11:39:10.591Z,4692.00
2018-11-04T11:41:12.284Z,4820.00
2018-11-04T11:42:16.810Z,5072.00
2018-11-04T11:45:10.493Z,4376.00
2018-11-04T11:50:10.488Z,3888.00
2018-11-04T11:51:10.391Z,3692.00
2018-11-04T11:53:10.374Z,3572.00
2018-11-04T11:54:10.644Z,3804.00
2018-11-04T11:55:11.741Z,4108.00
2018-11-04T11:56:10.306Z,3868.00
2018-11-04T11:57:10.406Z,3276.00
2018-11-04T11:58:10.270Z,3276.00
2018-11-04T11:59:10.290Z,3040.00
2018-11-04T12:00:10.534Z,3284.00
2018-11-04T12:01:10.233Z,3024.00
2018-11-04T12:02:10.205Z,3076.00
2018-11-04T12:03:10.395Z,3100.00
2018-11-04T12:04:10.380Z,3372.00
2018-11-04T12:05:11.566Z,3316.00
2018-11-04T12:06:10.627Z,3608.00
2018-11-04T12:07:10.117Z,3536.00
2018-11-04T12:08:10.374Z,3440.00
2018-11-04T12:09:10.065Z,3272.00
2018-11-04T12:10:10.048Z,3120.00
2018-11-04T12:13:10.028Z,3100.00
2018-11-04T12:14:09.992Z,3044.00
2018-11-04T12:16:09.950Z,2972.00
2018-11-04T12:17:09.939Z,2908.00
2018-11-04T12:18:09.926Z,2576.00
2018-11-04T12:23:09.861Z,2780.00
2018-11-04T12:24:09.818Z,2576.00
2018-11-04T12:25:10.126Z,2844.00
2018-11-04T12:26:09.892Z,2308.00
2018-11-04T12:27:09.788Z,2192.00
2018-11-04T12:28:10.023Z,2592.00
2018-11-04T12:29:09.744Z,2600.00
2018-11-04T12:30:09.744Z,2328.00
2018-11-04T12:31:09.914Z,2276.00
2018-11-04T12:32:10.045Z,2340.00
2018-11-04T12:33:09.667Z,2136.00
2018-11-04T12:34:09.700Z,2360.00
2018-11-04T12:35:09.669Z,2128.00
2018-11-04T12:36:09.611Z,2272.00
2018-11-04T12:39:09.882Z,1880.00
2018-11-04T12:40:09.566Z,2068.00
2018-11-04T12:41:09.644Z,2120.00
2018-11-04T12:42:09.682Z,2308.00
2018-11-04T12:43:09.508Z,2000.00
2018-11-04T12:44:09.545Z,2268.00
2018-11-04T12:46:09.996Z,2452.00
2018-11-04T12:47:09.479Z,2460.00
2018-11-04T12:48:09.641Z,2412.00
2018-11-04T12:49:09.460Z,2160.00
2018-11-04T12:50:09.400Z,2272.00
2018-11-04T12:51:09.375Z,2172.00
2018-11-04T12:52:09.396Z,1904.00
2018-11-04T12:53:09.624Z,1964.00
2018-11-04T12:54:09.311Z,2200.00
2018-11-04T12:55:09.346Z,2248.00
2018-11-04T12:57:09.267Z,1836.00
2018-11-04T12:58:09.243Z,1876.00
2018-11-04T12:59:09.637Z,1812.00
2018-11-04T13:00:09.564Z,1936.00
2018-11-04T13:02:09.241Z,1980.00
2018-11-04T13:03:09.171Z,1956.00
2018-11-04T13:04:09.145Z,1920.00
2018-11-04T13:05:09.135Z,1820.00
2018-11-04T13:06:09.110Z,1792.00
2018-11-04T13:07:09.094Z,2068.00
2018-11-04T13:08:15.347Z,2132.00
2018-11-04T13:09:15.328Z,2104.00
2018-11-04T13:11:12.108Z,1976.00
2018-11-04T13:12:08.994Z,1956.00
2018-11-04T13:13:08.984Z,1924.00
2018-11-04T13:14:09.256Z,1888.00
2018-11-04T13:15:09.250Z,1868.00
2018-11-04T13:17:09.816Z,1696.00
2018-11-04T13:18:09.324Z,1732.00
2018-11-04T13:19:08.980Z,1728.00
2018-11-04T13:20:09.249Z,1736.00
2018-11-04T13:21:08.927Z,1724.00
2018-11-04T13:22:08.842Z,1528.00
2018-11-04T13:23:09.273Z,1536.00
2018-11-04T13:24:08.985Z,1484.00
2018-11-04T13:25:08.795Z,1436.00
2018-11-04T13:26:08.771Z,1468.00
2018-11-04T13:27:11.777Z,1504.00
2018-11-04T13:28:08.711Z,1500.00
2018-11-04T13:29:09.133Z,1528.00
2018-11-04T13:30:08.751Z,1420.00
2018-11-04T13:31:08.678Z,1328.00
2018-11-04T13:32:08.968Z,1328.00
2018-11-04T13:33:08.622Z,1308.00
2018-11-04T13:34:11.634Z,1312.00
2018-11-04T13:35:08.889Z,1276.00
2018-11-04T13:36:09.384Z,1212.00
2018-11-04T13:37:08.542Z,1200.00
2018-11-04T13:38:08.820Z,1140.00
2018-11-04T13:39:21.254Z,1196.00
2018-11-04T13:40:08.518Z,1176.00
2018-11-04T13:41:10.501Z,1188.00
2018-11-04T13:42:08.650Z,1140.00
2018-11-04T13:43:08.853Z,1080.00
2018-11-04T13:45:08.809Z,1040.00
2018-11-04T13:46:08.414Z,980.00
2018-11-04T13:47:08.680Z,928.00
2018-11-04T13:48:08.393Z,908.00
2018-11-04T13:49:08.890Z,916.00
2018-11-04T13:50:08.392Z,940.00
2018-11-04T13:51:08.321Z,984.00
2018-11-04T13:52:08.284Z,992.00
2018-11-04T13:54:08.724Z,992.00
2018-11-04T13:55:08.467Z,1028.00
2018-11-04T13:56:08.371Z,980.00
2018-11-04T13:57:08.191Z,976.00
2018-11-04T13:58:08.281Z,928.00
2018-11-04T13:59:08.167Z,932.00
2018-11-04T14:00:08.246Z,968.00
2018-11-04T14:01:08.533Z,1016.00
2018-11-04T14:02:08.093Z,1048.00
2018-11-04T14:03:08.276Z,1036.00
2018-11-04T14:04:08.070Z,1016.00
2018-11-04T14:06:08.016Z,936.00
2018-11-04T14:07:07.995Z,964.00
2018-11-04T14:08:08.488Z,988.00
2018-11-04T14:09:07.971Z,884.00
2018-11-04T14:10:07.940Z,836.00
2018-11-04T14:11:07.925Z,832.00
2018-11-04T14:12:07.913Z,784.00
2018-11-04T14:13:08.151Z,764.00
2018-11-04T14:14:08.194Z,752.00
2018-11-04T14:15:07.881Z,756.00
2018-11-04T14:16:08.043Z,700.00
2018-11-04T14:17:07.821Z,700.00
2018-11-04T14:18:08.404Z,672.00
2018-11-04T14:19:07.984Z,676.00
2018-11-04T14:20:08.074Z,704.00
2018-11-04T14:21:07.747Z,648.00
2018-11-04T14:22:07.733Z,628.00
2018-11-04T14:23:07.717Z,616.00
2018-11-04T14:24:10.728Z,612.00
2018-11-04T14:25:08.288Z,648.00
2018-11-04T14:26:07.881Z,636.00
2018-11-04T14:28:08.558Z,568.00
2018-11-04T14:29:08.256Z,580.00
2018-11-04T14:30:07.993Z,572.00
2018-11-04T14:31:07.643Z,556.00
2018-11-04T14:32:08.183Z,552.00
2018-11-04T14:33:07.551Z,544.00
2018-11-04T14:34:08.960Z,516.00
2018-11-04T14:35:07.753Z,508.00
2018-11-04T14:36:07.713Z,520.00
2018-11-04T14:38:09.790Z,496.00
2018-11-04T14:39:07.692Z,488.00
2018-11-04T14:40:07.810Z,472.00
2018-11-04T14:41:07.513Z,456.00
2018-11-04T14:42:07.602Z,440.00
2018-11-04T14:43:07.373Z,432.00
2018-11-04T14:45:08.552Z,436.00
2018-11-04T14:46:07.764Z,460.00
2018-11-04T14:47:07.339Z,460.00
2018-11-04T14:48:07.478Z,460.00
2018-11-04T14:49:08.331Z,424.00
2018-11-04T14:50:07.339Z,372.00
2018-11-04T14:51:07.223Z,344.00
2018-11-04T14:52:07.918Z,324.00
2018-11-04T14:53:08.605Z,420.00
2018-11-04T14:54:08.258Z,444.00
2018-11-04T14:55:08.399Z,388.00
2018-11-04T14:56:07.114Z,432.00
2018-11-04T14:57:07.305Z,428.00
2018-11-04T14:58:08.807Z,404.00
2018-11-04T14:59:07.119Z,340.00
2018-11-04T15:00:07.138Z,328.00
2018-11-04T15:01:07.092Z,284.00
2018-11-04T15:02:20.352Z,304.00
2018-11-04T15:03:07.003Z,316.00
2018-11-04T15:04:06.990Z,332.00
2018-11-04T15:05:07.382Z,288.00
2018-11-04T15:06:07.064Z,292.00
2018-11-04T15:07:06.928Z,252.00
2018-11-04T15:08:06.964Z,256.00
2018-11-04T15:09:07.471Z,244.00
2018-11-04T15:10:06.886Z,268.00
2018-11-04T15:11:06.920Z,256.00
2018-11-04T15:12:06.828Z,244.00
2018-11-04T15:13:06.895Z,220.00
2018-11-04T15:14:06.952Z,224.00
2018-11-04T15:15:07.399Z,204.00
2018-11-04T15:16:06.826Z,176.00
2018-11-04T15:17:09.245Z,152.00
2018-11-04T15:18:07.022Z,136.00
2018-11-04T15:19:07.118Z,156.00
2018-11-04T15:20:08.100Z,156.00
2018-11-04T15:21:06.727Z,152.00
2018-11-04T15:22:06.653Z,124.00
2018-11-04T15:23:06.654Z,108.00
2018-11-04T15:24:07.683Z,108.00
2018-11-04T15:25:07.493Z,104.00
2018-11-04T15:26:11.720Z,116.00
2018-11-04T15:27:06.911Z,96.00
2018-11-04T15:28:07.348Z,92.00
2018-11-04T15:29:06.533Z,92.00
2018-11-04T15:30:06.520Z,88.00
2018-11-04T15:31:07.780Z,88.00
2018-11-04T15:32:06.469Z,84.00
2018-11-04T15:33:06.521Z,64.00
2018-11-04T15:34:06.780Z,56.00
2018-11-04T15:35:06.893Z,56.00
2018-11-04T15:36:06.579Z,60.00
2018-11-04T15:37:06.723Z,52.00
2018-11-04T15:38:07.423Z,44.00
2018-11-04T15:39:06.355Z,36.00
2018-11-04T15:40:06.310Z,36.00
2018-11-04T15:41:06.472Z,36.00
2018-11-04T15:42:06.277Z,36.00
2018-11-04T15:43:06.468Z,32.00
2018-11-04T15:44:07.590Z,24.00
2018-11-04T15:45:06.227Z,24.00
2018-11-04T15:46:06.241Z,24.00
2018-11-04T15:47:06.250Z,24.00
2018-11-04T15:48:06.160Z,16.00
2018-11-04T15:49:06.257Z,12.00
2018-11-04T15:50:06.332Z,12.00
2018-11-04T15:51:06.809Z,12.00
2018-11-04T15:52:06.094Z,8.00
2018-11-04T15:53:07.435Z,8.00
2018-11-04T15:54:06.064Z,8.00
2018-11-04T15:55:06.051Z,4.00
2018-11-04T15:56:06.160Z,8.00
2018-11-04T15:57:06.044Z,4.00
2018-11-04T15:58:06.331Z,4.00
2018-11-04T15:59:05.961Z,4.00
2018-11-04T16:00:05.942Z,4.00
2018-11-04T16:01:05.932Z,0.00
2018-11-04T16:02:05.978Z,4.00
2018-11-04T16:03:05.924Z,4.00
2018-11-04T16:04:06.215Z,0.00
2018-11-04T16:05:05.872Z,0.00
2018-11-04T16:06:06.017Z,0.00
2018-11-04T16:07:05.989Z,0.00
2018-11-04T16:08:06.198Z,0.00